Time;durP1;ratioP1;P1;durP2;ratioP2;P2;SDS_P1;SDS_P2;PMS_P1;PMS_P2;Temp;Humidity;BMP_temperature;BMP_pressure;BME280_temperature;BME280_humidity;BME280_pressure;Samples;Min_cycle;Max_cycle;Signal;HPM_P1;HPM_P2
2022/11/30 00:01:20;;;;;;;22.70;14.25;;;;;;;5.42;68.00;100440.63;4456514;32;33643;-74
2022/11/30 00:03:53;;;;;;;25.30;14.77;;;;;;;5.59;67.61;100443.84;4469728;32;34128;-74
2022/11/30 00:06:23;;;;;;;22.45;13.88;;;;;;;5.59;67.78;100446.53;4455777;32;33605;-75
2022/11/30 00:08:52;;;;;;;24.85;14.85;;;;;;;5.61;66.80;100433.72;4448128;32;34925;-73
2022/11/30 00:11:21;;;;;;;23.23;12.88;;;;;;;5.59;67.80;100435.78;4439984;32;33596;-74
2022/11/30 00:13:48;;;;;;;23.33;14.02;;;;;;;5.64;67.49;100436.84;4451751;32;33936;-74
2022/11/30 00:16:16;;;;;;;22.75;13.98;;;;;;;5.88;66.08;100442.75;4462388;32;33716;-74
2022/11/30 00:18:44;;;;;;;24.42;14.70;;;;;;;5.41;67.88;100433.63;4454814;32;34164;-75
2022/11/30 00:21:12;;;;;;;23.80;14.55;;;;;;;5.21;68.86;100438.88;4455213;32;33956;-74
2022/11/30 00:23:42;;;;;;;23.83;14.55;;;;;;;5.03;69.57;100444.72;4469385;32;33436;-74
2022/11/30 00:26:12;;;;;;;24.15;14.93;;;;;;;5.51;68.39;100434.09;4442060;32;32746;-73
2022/11/30 00:28:39;;;;;;;22.13;14.35;;;;;;;5.44;68.40;100439.44;4466628;32;34821;-73
2022/11/30 00:31:10;;;;;;;23.30;13.57;;;;;;;5.40;67.75;100434.63;4448622;32;35144;-78
2022/11/30 00:33:38;;;;;;;21.12;12.95;;;;;;;5.78;66.64;100435.03;4453714;32;33684;-73
2022/11/30 00:36:08;;;;;;;23.38;13.13;;;;;;;5.75;66.66;100438.16;4453955;32;33541;-72
2022/11/30 00:38:35;;;;;;;19.90;12.35;;;;;;;5.28;67.41;100432.50;4452330;32;34823;-74
2022/11/30 00:41:03;;;;;;;21.33;12.25;;;;;;;5.32;67.30;100424.88;4453686;32;34005;-74
2022/11/30 00:43:30;;;;;;;20.25;12.35;;;;;;;5.51;67.05;100434.91;4444175;32;33602;-74
2022/11/30 00:45:58;;;;;;;23.90;13.88;;;;;;;5.65;66.05;100434.97;4453338;32;34455;-73
2022/11/30 00:48:25;;;;;;;22.20;13.52;;;;;;;5.51;66.00;100439.47;4456050;32;33745;-73
2022/11/30 00:50:53;;;;;;;22.35;13.00;;;;;;;5.21;67.01;100438.88;4452421;32;35043;-74
2022/11/30 00:53:21;;;;;;;20.48;13.10;;;;;;;5.29;67.03;100444.94;4453635;32;34097;-74
2022/11/30 00:55:48;;;;;;;19.15;11.32;;;;;;;5.07;68.21;100449.50;4439817;32;33892;-74
2022/11/30 00:58:15;;;;;;;20.50;12.05;;;;;;;5.49;66.88;100445.03;4469034;32;33673;-77
2022/11/30 01:00:43;;;;;;;21.60;12.50;;;;;;;5.38;66.61;100447.44;4469344;32;34181;-73
2022/11/30 01:03:11;;;;;;;20.27;12.60;;;;;;;5.48;65.81;100442.53;4447345;32;33093;-73
2022/11/30 01:05:39;;;;;;;19.70;12.23;;;;;;;5.58;65.49;100443.03;4453627;32;33329;-73
2022/11/30 01:08:08;;;;;;;23.05;12.65;;;;;;;5.12;67.40;100449.78;4468897;32;34806;-73
2022/11/30 01:10:37;;;;;;;17.02;11.57;;;;;;;5.38;67.29;100448.31;4468876;32;34188;-74
2022/11/30 01:13:05;;;;;;;20.55;11.90;;;;;;;5.81;64.66;100445.44;4454937;32;34675;-74
2022/11/30 01:15:38;;;;;;;17.52;11.05;;;;;;;6.09;63.43;100448.06;4468908;32;33638;-73
2022/11/30 01:18:05;;;;;;;17.05;11.30;;;;;;;5.66;65.06;100439.31;4454094;32;35601;-74
2022/11/30 01:20:33;;;;;;;18.50;11.32;;;;;;;5.67;65.20;100449.06;4463984;32;34142;-75
2022/11/30 01:23:00;;;;;;;18.98;11.35;;;;;;;5.42;65.63;100446.03;4451973;32;33597;-73
2022/11/30 01:25:27;;;;;;;18.87;11.85;;;;;;;5.79;64.60;100446.63;4453354;32;34413;-76
2022/11/30 01:27:55;;;;;;;17.80;11.15;;;;;;;6.18;62.34;100439.75;4453116;32;33976;-74
2022/11/30 01:30:22;;;;;;;19.15;11.77;;;;;;;5.97;63.59;100444.28;4453240;32;34222;-74
2022/11/30 01:32:50;;;;;;;17.95;10.95;;;;;;;5.48;65.43;100437.16;4455484;32;34004;-73
2022/11/30 01:35:17;;;;;;;17.05;10.57;;;;;;;6.00;64.42;100438.47;4468891;32;33327;-74
2022/11/30 01:37:45;;;;;;;18.10;10.85;;;;;;;5.76;65.41;100437.91;4468632;32;33906;-73
2022/11/30 01:40:13;;;;;;;18.42;10.73;;;;;;;6.15;63.72;100430.22;4446693;32;33930;-74
2022/11/30 01:42:45;;;;;;;17.10;10.55;;;;;;;6.22;63.56;100430.25;4453375;32;34894;-75
2022/11/30 01:45:13;;;;;;;17.30;9.95;;;;;;;6.43;63.21;100426.56;4451937;32;33426;-76
2022/11/30 01:47:47;;;;;;;16.87;10.48;;;;;;;6.55;62.51;100431.16;4454565;32;33595;-72
2022/11/30 01:50:19;;;;;;;18.23;10.38;;;;;;;6.37;63.29;100428.19;4454648;32;35147;-74
2022/11/30 01:52:50;;;;;;;18.30;10.98;;;;;;;6.27;62.93;100425.91;4454758;32;33234;-74
2022/11/30 01:55:25;;;;;;;18.75;10.90;;;;;;;6.22;62.56;100427.53;4437039;32;33366;-74
2022/11/30 01:57:59;;;;;;;17.55;10.68;;;;;;;6.21;62.89;100425.91;4444512;32;33988;-74
2022/11/30 02:00:27;;;;;;;19.35;10.05;;;;;;;5.89;64.39;100431.75;4468873;32;35162;-74
2022/11/30 02:03:08;;;;;;;14.98;8.85;;;;;;;6.10;62.28;100427.31;4453809;32;33089;-74
2022/11/30 02:05:37;;;;;;;16.70;9.68;;;;;;;5.97;62.80;100429.97;4452101;32;33790;-74
2022/11/30 02:08:06;;;;;;;15.60;9.05;;;;;;;5.59;63.57;100425.81;4453072;32;34673;-73
2022/11/30 02:10:36;;;;;;;16.45;9.82;;;;;;;5.98;62.23;100421.66;4440381;32;33413;-74
2022/11/30 02:13:23;;;;;;;14.93;8.90;;;;;;;5.96;61.80;100429.12;4453557;32;34652;-75
2022/11/30 02:16:13;;;;;;;15.57;9.85;;;;;;;5.78;62.03;100421.56;4454286;32;33565;-75
2022/11/30 02:19:04;;;;;;;15.13;9.35;;;;;;;5.91;61.53;100429.69;4435438;32;32175;-74
2022/11/30 02:21:42;;;;;;;13.88;8.30;;;;;;;5.67;61.73;100428.34;4452268;32;34282;-73
2022/11/30 02:24:37;;;;;;;15.40;8.93;;;;;;;5.31;63.78;100428.56;4450591;32;33941;-73
2022/11/30 02:27:27;;;;;;;14.23;8.95;;;;;;;5.68;62.07;100424.66;4451654;32;34370;-73
2022/11/30 02:30:08;;;;;;;14.43;9.23;;;;;;;5.74;62.56;100421.16;4452938;32;34832;-76
2022/11/30 02:32:59;;;;;;;14.20;8.23;;;;;;;5.92;61.38;100417.09;4438943;32;35066;-75
2022/11/30 02:35:36;;;;;;;15.70;9.10;;;;;;;5.61;62.35;100413.00;4452850;32;37509;-74
2022/11/30 02:38:04;;;;;;;15.05;8.52;;;;;;;6.01;61.71;100410.50;4448978;32;33591;-73
2022/11/30 02:40:31;;;;;;;14.07;8.65;;;;;;;5.40;63.40;100419.34;4451596;32;33579;-77
2022/11/30 02:43:00;;;;;;;15.48;9.18;;;;;;;5.54;61.85;100406.75;4450629;32;33278;-74
2022/11/30 02:45:35;;;;;;;15.13;9.48;;;;;;;5.42;63.27;100416.41;4452409;32;34611;-73
2022/11/30 02:48:10;;;;;;;13.98;8.85;;;;;;;5.92;61.20;100420.59;4424190;32;32694;-77
2022/11/30 02:50:39;;;;;;;;;;;;;;;5.83;61.74;100416.44;4438961;32;33682;-76
2022/11/30 02:53:08;;;;;;;14.98;8.95;;;;;;;5.82;61.19;100408.53;4439843;32;35230;-76
2022/11/30 02:55:35;;;;;;;14.93;9.05;;;;;;;5.68;61.51;100407.66;4451430;32;34010;-76
2022/11/30 02:58:02;;;;;;;13.23;8.57;;;;;;;5.24;63.07;100409.69;4450982;32;33497;-74
2022/11/30 03:00:30;;;;;;;16.00;9.15;;;;;;;5.50;62.52;100406.31;4451953;32;34771;-73
2022/11/30 03:02:58;;;;;;;14.43;8.80;;;;;;;5.57;62.82;100410.91;4438695;32;34255;-73
2022/11/30 03:05:25;;;;;;;16.25;9.07;;;;;;;5.69;61.38;100404.75;4438559;32;34818;-74
2022/11/30 03:07:53;;;;;;;15.60;8.68;;;;;;;5.49;62.53;100403.84;4450899;32;33319;-75
2022/11/30 03:10:20;;;;;;;14.87;8.90;;;;;;;5.73;62.37;100406.03;4452372;32;33309;-73
2022/11/30 03:12:47;;;;;;;13.55;8.77;;;;;;;5.65;61.50;100402.69;4451222;32;34203;-75
2022/11/30 03:15:15;;;;;;;17.02;9.18;;;;;;;5.74;61.88;100406.84;4451349;32;33906;-75
2022/11/30 03:17:43;;;;;;;16.80;9.52;;;;;;;5.73;62.40;100413.28;4453276;32;33251;-73
2022/11/30 03:20:10;;;;;;;14.65;9.02;;;;;;;5.81;60.84;100415.81;4440481;32;33734;-73
2022/11/30 03:22:38;;;;;;;15.88;8.95;;;;;;;6.18;59.73;100410.13;4438835;32;35096;-74
2022/11/30 03:25:05;;;;;;;14.98;9.27;;;;;;;6.13;59.01;100419.69;4438440;32;34630;-74
2022/11/30 03:27:32;;;;;;;15.48;9.52;;;;;;;6.07;59.47;100414.25;4446540;32;34400;-75
2022/11/30 03:30:00;;;;;;;12.68;8.65;;;;;;;6.23;59.02;100426.53;4454165;32;33928;-74
2022/11/30 03:32:29;;;;;;;16.27;8.90;;;;;;;5.73;59.85;100419.47;4454502;32;34163;-78
2022/11/30 03:34:57;;;;;;;15.05;9.48;;;;;;;5.78;60.03;100426.97;4450765;32;33610;-73
2022/11/30 03:37:24;;;;;;;13.45;8.85;;;;;;;6.09;59.74;100422.94;4437328;32;34289;-75
2022/11/30 03:39:53;;;;;;;13.80;8.40;;;;;;;6.11;59.87;100416.34;4467939;32;34397;-74
2022/11/30 03:42:24;;;;;;;17.52;10.55;;;;;;;5.74;60.27;100426.56;4447076;32;33682;-74
2022/11/30 03:44:52;;;;;;;15.48;8.73;;;;;;;5.52;61.15;100420.41;4454039;32;33891;-75
2022/11/30 03:47:19;;;;;;;14.55;9.55;;;;;;;5.42;62.17;100411.03;4439691;32;32735;-73
2022/11/30 03:49:47;;;;;;;16.67;10.00;;;;;;;5.79;61.14;100419.69;4453800;32;33678;-74
2022/11/30 03:52:14;;;;;;;14.52;8.57;;;;;;;5.92;60.51;100423.28;4440161;32;33396;-74
2022/11/30 03:54:42;;;;;;;15.45;9.23;;;;;;;5.99;60.00;100425.22;4439294;32;33755;-75
2022/11/30 03:57:09;;;;;;;15.38;8.95;;;;;;;5.53;61.03;100422.09;4466246;32;32401;-75
2022/11/30 03:59:36;;;;;;;16.58;9.43;;;;;;;5.44;62.14;100422.44;4469361;32;33978;-74
2022/11/30 04:02:04;;;;;;;15.70;9.07;;;;;;;5.62;61.55;100419.25;4469012;32;34303;-74
2022/11/30 04:04:31;;;;;;;16.10;10.20;;;;;;;5.72;61.49;100420.53;4467432;32;34521;-74
2022/11/30 04:06:59;;;;;;;17.08;9.93;;;;;;;5.81;62.16;100420.34;4469586;32;34352;-73
2022/11/30 04:09:26;;;;;;;15.45;9.50;;;;;;;5.82;61.58;100417.44;4469190;32;34725;-73
2022/11/30 04:11:54;;;;;;;15.70;9.63;;;;;;;5.51;62.65;100413.37;4469669;32;34204;-74
2022/11/30 04:14:21;;;;;;;15.35;9.30;;;;;;;5.96;60.80;100415.66;4440776;32;35001;-73
2022/11/30 04:16:48;;;;;;;16.48;9.35;;;;;;;6.48;59.33;100414.13;4439596;32;33496;-74
2022/11/30 04:19:16;;;;;;;15.30;8.93;;;;;;;6.40;59.55;100413.50;4437550;32;34329;-75
2022/11/30 04:21:43;;;;;;;14.75;8.63;;;;;;;5.84;60.07;100411.88;4427239;32;34301;-74
2022/11/30 04:24:11;;;;;;;12.85;8.18;;;;;;;5.89;59.98;100421.00;4453848;32;33904;-74
2022/11/30 04:26:38;;;;;;;16.23;8.52;;;;;;;6.44;58.28;100423.66;4438809;32;31956;-73
2022/11/30 04:29:06;;;;;;;14.87;8.50;;;;;;;6.29;58.88;100423.84;4426619;32;34604;-74
2022/11/30 04:31:33;;;;;;;16.42;9.02;;;;;;;6.18;59.20;100410.13;4437516;32;34955;-75
2022/11/30 04:34:01;;;;;;;14.10;8.38;;;;;;;6.38;58.63;100419.09;4454009;32;34898;-74
2022/11/30 04:36:28;;;;;;;13.55;8.48;;;;;;;6.33;58.28;100421.59;4453836;32;34247;-75
2022/11/30 04:38:56;;;;;;;14.10;8.07;;;;;;;6.45;58.49;100422.63;4439130;32;32387;-75
2022/11/30 04:41:23;;;;;;;12.48;7.40;;;;;;;6.43;58.60;100422.00;4439965;32;33947;-75
2022/11/30 04:43:50;;;;;;;12.10;8.27;;;;;;;6.47;58.88;100420.56;4452361;32;34449;-75
2022/11/30 04:46:18;;;;;;;14.18;7.60;;;;;;;6.49;59.17;100423.06;4452304;32;34868;-75
2022/11/30 04:48:45;;;;;;;14.07;8.13;;;;;;;6.44;59.49;100429.06;4453286;32;34822;-75
2022/11/30 04:51:13;;;;;;;14.35;8.65;;;;;;;6.46;58.67;100424.28;4453119;32;34354;-74
2022/11/30 04:53:40;;;;;;;15.55;8.18;;;;;;;6.29;59.04;100423.84;4451648;32;34786;-74
2022/11/30 04:56:09;;;;;;;14.48;8.60;;;;;;;5.68;60.59;100423.78;4453774;32;33762;-73
2022/11/30 04:58:37;;;;;;;14.93;9.15;;;;;;;6.21;59.56;100424.03;4439143;32;33729;-77
2022/11/30 05:01:05;;;;;;;14.30;8.10;;;;;;;6.06;60.46;100415.28;4453465;32;35057;-71
2022/11/30 05:03:33;;;;;;;14.35;8.80;;;;;;;6.35;59.19;100423.03;4438937;32;34366;-75
2022/11/30 05:06:02;;;;;;;17.08;9.07;;;;;;;6.26;59.05;100428.81;4453863;32;33686;-74
2022/11/30 05:08:29;;;;;;;14.10;8.60;;;;;;;6.69;58.44;100421.19;4452251;32;34023;-79
2022/11/30 05:10:57;;;;;;;14.45;7.37;;;;;;;6.75;57.68;100416.84;4439749;32;34185;-72
2022/11/30 05:13:25;;;;;;;12.68;7.37;;;;;;;6.57;57.36;100429.06;4452182;32;34804;-79
2022/11/30 05:15:52;;;;;;;12.75;7.45;;;;;;;6.30;57.68;100427.37;4439482;32;34372;-73
2022/11/30 05:18:21;;;;;;;13.07;7.90;;;;;;;6.63;57.83;100427.44;4459903;32;33989;-79
2022/11/30 05:20:50;;;;;;;11.90;7.68;;;;;;;6.56;57.83;100431.97;4413089;32;33469;-74
2022/11/30 05:23:18;;;;;;;17.58;8.10;;;;;;;6.80;55.83;100425.12;4423394;32;33492;-73
2022/11/30 05:25:46;;;;;;;11.93;7.60;;;;;;;6.58;56.13;100440.69;4437836;32;34106;-73
2022/11/30 05:28:13;;;;;;;12.70;7.93;;;;;;;6.22;57.33;100433.78;4449619;32;33454;-74
2022/11/30 05:30:41;;;;;;;14.48;8.10;;;;;;;5.94;57.45;100441.97;4451888;32;34151;-73
2022/11/30 05:33:09;;;;;;;14.07;8.05;;;;;;;5.84;58.59;100434.25;4438159;32;33595;-72
2022/11/30 05:35:37;;;;;;;12.27;7.45;;;;;;;5.69;58.81;100429.00;4436025;32;33408;-72
2022/11/30 05:38:05;;;;;;;11.55;7.05;;;;;;;6.08;57.39;100434.78;4423392;32;33763;-72
2022/11/30 05:40:32;;;;;;;13.98;7.87;;;;;;;5.84;57.56;100433.41;4451978;32;34645;-73
2022/11/30 05:43:01;;;;;;;14.00;8.18;;;;;;;6.05;57.46;100435.19;4450857;32;34143;-73
2022/11/30 05:45:29;;;;;;;12.70;8.07;;;;;;;5.71;59.47;100434.19;4437889;32;33281;-71
2022/11/30 05:47:56;;;;;;;13.05;7.90;;;;;;;6.06;57.23;100436.84;4451895;32;32579;-72
2022/11/30 05:50:24;;;;;;;13.43;8.07;;;;;;;5.71;59.46;100434.19;4438484;32;33911;-78
2022/11/30 05:52:55;;;;;;;14.93;8.07;;;;;;;5.71;59.21;100437.69;4452658;32;34318;-75
2022/11/30 05:55:23;;;;;;;14.32;7.53;;;;;;;5.52;60.17;100436.56;4449468;32;34576;-73
2022/11/30 05:57:51;;;;;;;13.02;8.10;;;;;;;5.69;58.86;100437.06;4451673;32;33610;-74
2022/11/30 06:00:19;;;;;;;15.05;7.43;;;;;;;5.51;59.78;100440.31;4437993;32;34125;-72
2022/11/30 06:02:47;;;;;;;14.77;8.52;;;;;;;5.52;59.66;100444.63;4453300;32;34014;-74
2022/11/30 06:05:15;;;;;;;12.18;7.80;;;;;;;5.49;60.49;100442.34;4451722;32;34312;-74
2022/11/30 06:07:42;;;;;;;13.13;8.18;;;;;;;5.57;59.59;100440.53;4458950;32;33530;-72
2022/11/30 06:10:10;;;;;;;15.73;8.40;;;;;;;5.79;58.51;100438.56;4468296;32;35120;-73
2022/11/30 06:12:38;;;;;;;12.93;8.23;;;;;;;6.16;58.16;100451.59;4455719;32;33791;-73
2022/11/30 06:15:06;;;;;;;11.88;7.53;;;;;;;6.01;59.00;100456.31;4431728;32;217973;-77
2022/11/30 06:17:36;;;;;;;11.65;7.22;;;;;;;6.43;56.92;100465.13;4453768;32;34855;-75
2022/11/30 06:20:05;;;;;;;13.70;8.07;;;;;;;6.32;56.99;100461.16;4466189;32;33779;-78
2022/11/30 06:22:33;;;;;;;12.88;7.85;;;;;;;6.18;57.32;100450.53;4467105;32;33902;-82
2022/11/30 06:25:00;;;;;;;13.25;7.90;;;;;;;5.61;58.82;100461.44;4468089;32;33189;-76
2022/11/30 06:27:31;;;;;;;13.75;7.65;;;;;;;6.03;56.86;100469.56;4467500;32;34610;-78
2022/11/30 06:29:58;;;;;;;13.35;7.85;;;;;;;5.62;57.92;100465.00;4452401;32;34666;-73
2022/11/30 06:32:26;;;;;;;15.82;8.57;;;;;;;5.41;59.05;100465.91;4467279;32;34047;-73
2022/11/30 06:34:53;;;;;;;12.55;7.30;;;;;;;5.79;58.49;100468.16;4467882;32;33538;-72
2022/11/30 06:37:20;;;;;;;12.73;8.02;;;;;;;5.86;57.04;100469.06;4467401;32;33731;-72
2022/11/30 06:39:48;;;;;;;14.77;8.05;;;;;;;5.71;57.92;100474.56;4467734;32;35101;-72
2022/11/30 06:42:34;;;;;;;15.03;9.07;;;;;;;5.69;58.11;100479.31;4467833;32;34003;-73
2022/11/30 06:45:03;;;;;;;14.95;9.02;;;;;;;5.67;58.17;100476.81;4452425;32;33430;-73
2022/11/30 06:47:31;;;;;;;14.63;9.43;;;;;;;5.83;57.96;100482.91;4453339;32;34536;-72
2022/11/30 06:49:58;;;;;;;14.32;8.57;;;;;;;5.82;57.54;100478.56;4467793;32;34057;-76
2022/11/30 06:52:26;;;;;;;13.38;8.38;;;;;;;5.39;59.08;100484.09;4453291;32;34612;-78
2022/11/30 06:54:53;;;;;;;13.68;7.75;;;;;;;5.79;57.85;100476.25;4467368;32;33350;-76
2022/11/30 06:57:30;;;;;;;16.02;8.55;;;;;;;5.83;57.83;100477.50;4467611;32;33918;-77
2022/11/30 06:59:57;;;;;;;22.10;9.93;;;;;;;6.22;56.27;100476.91;4453123;32;33333;-75
2022/11/30 07:02:26;;;;;;;17.20;9.60;;;;;;;6.19;56.63;100477.28;4467135;32;34689;-76
2022/11/30 07:04:54;;;;;;;15.68;9.32;;;;;;;6.11;57.72;100477.47;4467837;32;33457;-73
2022/11/30 07:07:22;;;;;;;15.88;8.98;;;;;;;6.05;56.52;100481.81;4467666;32;33862;-76
2022/11/30 07:09:49;;;;;;;16.42;8.85;;;;;;;6.04;57.44;100473.91;4453538;32;33981;-77
2022/11/30 07:12:17;;;;;;;14.80;8.80;;;;;;;6.13;57.99;100483.47;4468044;32;33966;-72
2022/11/30 07:14:44;;;;;;;13.48;8.07;;;;;;;6.36;57.89;100475.06;4467812;32;33223;-72
2022/11/30 07:17:12;;;;;;;15.18;8.25;;;;;;;6.46;56.51;100472.00;4466658;32;33962;-73
2022/11/30 07:19:40;;;;;;;13.68;8.23;;;;;;;6.45;56.35;100473.84;4467345;32;34106;-73
2022/11/30 07:22:07;;;;;;;12.45;7.62;;;;;;;6.07;57.38;100476.19;4467926;32;33928;-78
2022/11/30 07:27:21;;;;;;;11.90;7.53;;;;;;;6.48;56.81;100467.19;4455334;32;34037;-74
2022/11/30 07:29:50;;;;;;;11.15;7.68;;;;;;;6.55;57.02;100468.06;4467148;32;34194;-76
2022/11/30 07:32:18;;;;;;;11.90;7.65;;;;;;;6.08;57.32;100472.50;4467685;32;34133;-72
2022/11/30 07:34:45;;;;;;;13.60;7.45;;;;;;;6.23;57.82;100470.47;4452498;32;33588;-76
2022/11/30 07:37:13;;;;;;;15.30;8.48;;;;;;;6.57;55.79;100476.78;4461603;32;34616;-74
2022/11/30 07:39:40;;;;;;;15.27;7.72;;;;;;;6.46;55.84;100474.69;4482576;32;34300;-77
2022/11/30 07:42:08;;;;;;;10.65;6.87;;;;;;;6.26;56.46;100474.63;4470740;32;33239;-74
2022/11/30 07:44:35;;;;;;;13.62;7.45;;;;;;;5.67;58.02;100470.59;4467339;32;34203;-75
2022/11/30 07:47:03;;;;;;;14.82;7.00;;;;;;;6.10;58.05;100468.56;4467333;32;34656;-75
2022/11/30 07:49:30;;;;;;;12.98;7.37;;;;;;;6.31;56.13;100472.97;4465215;32;35097;-77
2022/11/30 07:51:58;;;;;;;12.70;7.20;;;;;;;6.45;55.03;100471.13;4452674;32;32306;-73
2022/11/30 07:54:25;;;;;;;18.52;9.93;;;;;;;6.15;56.69;100473.34;4467143;32;33594;-73
2022/11/30 07:56:52;;;;;;;17.33;8.60;;;;;;;5.93;57.38;100476.12;4466775;32;33977;-75
2022/11/30 07:59:20;;;;;;;17.17;8.27;;;;;;;6.15;55.89;100470.63;4474523;32;34134;-75
2022/11/30 08:01:47;;;;;;;12.10;6.93;;;;;;;6.61;55.36;100486.12;4468236;32;34551;-76
2022/11/30 08:04:15;;;;;;;13.50;7.70;;;;;;;6.28;55.37;100472.56;4480305;32;34442;-72
2022/11/30 08:06:43;;;;;;;11.18;6.78;;;;;;;6.55;56.21;100476.97;4459496;32;34476;-73
2022/11/30 08:09:10;;;;;;;11.82;6.72;;;;;;;6.64;56.33;100471.41;4468688;32;34124;-73
2022/11/30 08:11:44;;;;;;;9.75;6.22;;;;;;;6.51;56.04;100473.03;4468874;32;33981;-75
2022/11/30 08:14:12;;;;;;;11.57;6.90;;;;;;;6.54;55.29;100474.47;4468975;32;33559;-73
2022/11/30 08:16:42;;;;;;;10.98;6.40;;;;;;;6.57;55.36;100477.59;4468810;32;33779;-74
2022/11/30 08:19:09;;;;;;;13.07;7.12;;;;;;;6.39;56.52;100477.34;4468015;32;35002;-76
2022/11/30 08:21:37;;;;;;;10.20;6.30;;;;;;;6.31;56.80;100478.38;4468549;32;35174;-73
2022/11/30 08:24:04;;;;;;;9.07;5.90;;;;;;;6.53;55.68;100475.53;4454048;32;33743;-74
2022/11/30 08:26:33;;;;;;;9.15;6.03;;;;;;;6.75;54.45;100466.22;4468660;32;33801;-74
2022/11/30 08:29:00;;;;;;;10.73;5.55;;;;;;;6.62;54.59;100465.38;4454440;32;34049;-74
2022/11/30 08:31:30;;;;;;;9.43;6.00;;;;;;;6.78;53.42;100462.25;4468861;32;34671;-74
2022/11/30 08:34:00;;;;;;;10.45;5.62;;;;;;;6.77;53.30;100464.13;4468486;32;33147;-71
2022/11/30 08:36:28;;;;;;;8.43;5.50;;;;;;;6.83;53.14;100453.59;4468191;32;34876;-71
2022/11/30 08:38:57;;;;;;;9.82;5.75;;;;;;;6.49;53.44;100453.53;4454286;32;34614;-72
2022/11/30 08:41:25;;;;;;;8.90;5.50;;;;;;;6.42;55.20;100455.38;4467906;32;33710;-71
2022/11/30 08:43:53;;;;;;;10.20;5.65;;;;;;;6.49;54.09;100452.69;4454570;32;34239;-75
2022/11/30 08:46:22;;;;;;;9.52;5.07;;;;;;;6.43;54.36;100448.94;4468309;32;34021;-75
2022/11/30 08:49:10;;;;;;;8.07;4.35;;;;;;;6.37;55.01;100453.31;4455822;32;35168;-74
2022/11/30 08:51:54;;;;;;;9.35;4.97;;;;;;;6.94;52.24;100451.09;4468354;32;33737;-73
2022/11/30 08:54:43;;;;;;;9.65;5.65;;;;;;;6.59;52.53;100447.75;4456725;32;33457;-72
2022/11/30 08:57:16;;;;;;;7.45;4.72;;;;;;;6.87;52.60;100450.25;4468333;32;34716;-73
2022/11/30 08:59:44;;;;;;;10.68;5.20;;;;;;;6.36;52.82;100448.94;4467679;32;34292;-73
2022/11/30 09:02:16;;;;;;;10.27;6.03;;;;;;;6.77;52.23;100460.63;4468584;32;33422;-74
2022/11/30 09:04:47;;;;;;;10.07;7.03;;;;;;;6.70;51.63;100457.91;4469161;32;33324;-72
2022/11/30 09:07:15;;;;;;;12.82;6.72;;;;;;;6.64;52.59;100453.34;4468394;32;33908;-74
2022/11/30 09:09:43;;;;;;;9.18;5.85;;;;;;;6.79;52.41;100463.94;4468217;32;34321;-73
2022/11/30 09:12:11;;;;;;;10.45;6.00;;;;;;;6.38;53.81;100467.59;4468718;32;33911;-74
2022/11/30 09:14:38;;;;;;;11.77;6.20;;;;;;;6.79;52.23;100466.63;4468038;32;33794;-73
2022/11/30 09:17:05;;;;;;;10.68;6.65;;;;;;;6.67;52.45;100462.88;4453356;32;34011;-73
2022/11/30 09:19:33;;;;;;;8.45;6.18;;;;;;;7.10;51.13;100462.50;4451429;32;35010;-74
2022/11/30 09:22:00;;;;;;;9.10;5.45;;;;;;;6.70;51.56;100466.00;4452814;32;34565;-74
2022/11/30 09:24:27;;;;;;;10.80;6.82;;;;;;;6.44;52.52;100460.59;4453123;32;33936;-73
2022/11/30 09:26:56;;;;;;;10.73;5.75;;;;;;;6.92;51.86;100463.13;4453095;32;33877;-73
2022/11/30 09:29:23;;;;;;;11.48;6.00;;;;;;;6.92;51.75;100463.94;4451254;32;34811;-72
2022/11/30 09:31:51;;;;;;;9.88;6.45;;;;;;;6.70;52.65;100465.19;4443561;32;34399;-73
2022/11/30 09:34:18;;;;;;;11.70;5.93;;;;;;;7.00;52.28;100460.22;4439411;32;34207;-74
2022/11/30 09:36:46;;;;;;;9.95;5.65;;;;;;;7.24;50.88;100463.31;4452458;32;34498;-73
2022/11/30 09:39:13;;;;;;;11.38;6.93;;;;;;;7.02;51.68;100458.16;4452204;32;34779;-72
2022/11/30 09:41:56;;;;;;;11.15;5.70;;;;;;;7.32;51.72;100465.78;4453155;32;34666;-72
2022/11/30 09:44:45;;;;;;;12.57;8.68;;;;;;;7.09;51.55;100461.66;4452927;32;34332;-74
2022/11/30 09:47:32;;;;;;;7.90;4.53;;;;;;;7.06;50.87;100459.41;4451976;32;34751;-73
2022/11/30 09:50:13;;;;;;;9.20;6.20;;;;;;;6.37;54.23;100450.63;4452392;32;35070;-73
2022/11/30 09:52:48;;;;;;;10.93;5.87;;;;;;;6.98;53.70;100455.03;4451762;32;33864;-71
2022/11/30 09:55:23;;;;;;;9.57;6.43;;;;;;;6.94;52.30;100452.97;4446132;32;33387;-73
2022/11/30 09:57:51;;;;;;;;;;;;;;;6.80;52.81;100449.41;4438856;32;34017;-73
2022/11/30 10:00:21;;;;;;;9.18;5.45;;;;;;;7.21;51.53;100439.44;4438562;32;34479;-72
2022/11/30 10:02:51;;;;;;;9.02;5.87;;;;;;;7.08;52.10;100448.38;4451931;32;34647;-76
2022/11/30 10:05:21;;;;;;;9.88;5.68;;;;;;;7.03;51.19;100450.87;4452830;32;34388;-79
2022/11/30 10:08:27;;;;;;;9.30;5.60;;;;;;;7.19;51.57;100453.13;4450851;32;34401;-73
2022/11/30 10:11:04;;;;;;;8.82;5.12;;;;;;;6.78;52.47;100449.63;4451679;32;34162;-72
2022/11/30 10:13:47;;;;;;;11.65;5.30;;;;;;;6.73;53.18;100448.59;4427470;32;34597;-75
2022/11/30 10:16:52;;;;;;;10.88;5.35;;;;;;;6.95;51.90;100435.72;4452960;32;34244;-75
2022/11/30 10:19:26;;;;;;;7.70;5.43;;;;;;;6.87;53.01;100430.53;4446998;32;33813;-74
2022/11/30 10:22:12;;;;;;;10.00;6.12;;;;;;;6.61;53.57;100436.75;4468399;32;35120;-74
2022/11/30 10:24:58;;;;;;;9.68;5.72;;;;;;;6.68;53.74;100429.50;4454473;32;34059;-73
2022/11/30 10:27:53;;;;;;;10.60;5.53;;;;;;;6.70;53.42;100422.88;4468204;32;33338;-76
2022/11/30 10:30:29;;;;;;;8.65;5.10;;;;;;;7.04;53.09;100418.31;4453598;32;33932;-74
2022/11/30 10:32:59;;;;;;;8.90;5.45;;;;;;;6.87;53.28;100417.03;4468769;32;34255;-74
2022/11/30 10:35:30;;;;;;;9.45;7.50;;;;;;;6.98;53.01;100413.75;4454595;32;33831;-74
2022/11/30 10:38:01;;;;;;;10.10;5.55;;;;;;;6.89;53.79;100405.03;4466928;32;33593;-75
2022/11/30 10:40:37;;;;;;;9.75;5.93;;;;;;;7.42;51.60;100412.19;4441026;32;33081;-73
2022/11/30 10:43:44;;;;;;;9.55;5.50;;;;;;;7.15;52.36;100414.97;4454616;32;34279;-75
2022/11/30 10:46:31;;;;;;;9.82;5.80;;;;;;;7.33;52.46;100418.88;4468003;32;34058;-74
2022/11/30 10:49:05;;;;;;;10.75;5.60;;;;;;;7.09;52.27;100421.19;4466874;32;33233;-75
2022/11/30 10:51:36;;;;;;;9.80;6.32;;;;;;;6.76;53.09;100415.81;4453780;32;33884;-73
2022/11/30 10:54:13;;;;;;;10.02;5.75;;;;;;;7.21;52.55;100423.25;4441470;32;34170;-76
2022/11/30 10:56:40;;;;;;;10.10;5.32;;;;;;;6.95;52.69;100420.37;4453706;32;35119;-74
2022/11/30 10:59:16;;;;;;;10.32;6.28;;;;;;;6.94;53.40;100409.78;4467388;32;33619;-74
2022/11/30 11:01:44;;;;;;;10.50;6.68;;;;;;;6.95;53.73;100411.44;4443021;32;33574;-74
2022/11/30 11:04:11;;;;;;;10.20;7.05;;;;;;;7.07;52.87;100414.34;4466873;32;33772;-74
2022/11/30 11:06:46;;;;;;;11.85;6.72;;;;;;;7.02;53.57;100416.81;4466905;32;33928;-74
2022/11/30 11:09:45;;;;;;;10.02;5.95;;;;;;;7.25;52.40;100414.50;4467362;32;33595;-75
2022/11/30 11:12:27;;;;;;;9.20;5.57;;;;;;;7.26;52.62;100416.19;4458980;32;34814;-74
2022/11/30 11:15:19;;;;;;;13.68;7.75;;;;;;;7.48;51.73;100419.44;4453128;32;35021;-75
2022/11/30 11:17:47;;;;;;;10.38;6.32;;;;;;;7.22;52.39;100414.13;4453532;32;33872;-75
2022/11/30 11:20:34;;;;;;;9.95;6.05;;;;;;;7.46;51.95;100416.13;4451813;32;35175;-78
2022/11/30 11:23:02;;;;;;;13.85;7.97;;;;;;;7.57;51.60;100404.66;4453417;32;33955;-75
2022/11/30 11:25:35;;;;;;;9.52;6.10;;;;;;;7.18;53.40;100416.41;4465344;32;35308;-72
2022/11/30 11:28:07;;;;;;;11.27;6.75;;;;;;;7.33;52.24;100417.00;4452297;32;34134;-74
2022/11/30 11:30:36;;;;;;;10.77;6.35;;;;;;;7.07;52.61;100417.88;4465078;32;34164;-74
2022/11/30 11:33:12;;;;;;;10.38;6.45;;;;;;;7.48;51.93;100414.06;4466042;32;34557;-78
2022/11/30 11:35:45;;;;;;;9.82;6.47;;;;;;;6.97;54.19;100417.44;4466067;32;34076;-77
2022/11/30 11:38:49;;;;;;;12.13;6.90;;;;;;;7.23;52.69;100410.37;4452495;32;33885;-75
2022/11/30 11:41:32;;;;;;;9.45;5.68;;;;;;;7.38;52.87;100416.34;4468545;32;33441;-73
2022/11/30 11:44:08;;;;;;;8.90;5.90;;;;;;;7.67;51.65;100417.75;4469251;32;34784;-74